createdAt,value
2023-05-22T00:01:00.253Z,63.7
2023-05-22T00:03:02.426Z,58.3
2023-05-22T00:05:04.455Z,64.6
2023-05-22T00:09:11.774Z,59.9
2023-05-22T00:11:13.845Z,67.6
2023-05-22T00:19:22.219Z,67.2
2023-05-22T00:25:31.573Z,77.5
2023-05-22T00:27:33.697Z,65.4
2023-05-22T00:29:35.737Z,66
2023-05-22T00:39:49.291Z,59.5
2023-05-22T00:40:51.947Z,66.9
2023-05-22T00:42:54.071Z,66.7
2023-05-22T00:44:57.649Z,65.1
2023-05-22T00:46:59.915Z,71.5
2023-05-22T00:55:11.188Z,52.7
2023-05-22T00:59:15.328Z,62
2023-05-22T01:01:17.489Z,62.5
2023-05-22T01:03:22.719Z,62.2
2023-05-22T01:05:24.747Z,63.4
2023-05-22T01:07:26.826Z,68.4
2023-05-22T01:15:35.147Z,53.7
2023-05-22T01:17:40.384Z,66
2023-05-22T01:19:42.462Z,71.8
2023-05-22T01:21:44.551Z,62
2023-05-22T01:23:46.624Z,65.7
2023-05-22T01:25:48.703Z,61.2
2023-05-22T01:27:50.798Z,62.8
2023-05-22T01:29:52.866Z,64.5
2023-05-22T01:31:58.114Z,75.8
2023-05-22T01:34:00.431Z,61.9
2023-05-22T01:37:04.884Z,73.6
2023-05-22T01:41:09.047Z,60.2
2023-05-22T01:45:16.399Z,56.8
2023-05-22T01:49:20.523Z,59.2
2023-05-22T01:51:22.623Z,62.9
2023-05-22T01:53:24.702Z,54.3
2023-05-22T01:55:26.774Z,54.3
2023-05-22T01:57:28.861Z,71.6
2023-05-22T01:59:34.095Z,55.2
2023-05-22T02:01:36.218Z,71.3
2023-05-22T02:03:38.308Z,63.1
2023-05-22T02:05:40.354Z,62.1
2023-05-22T02:07:42.454Z,68.9
2023-05-22T02:09:44.522Z,61.8
2023-05-22T02:11:46.604Z,60.9
2023-05-22T02:19:58.044Z,56.4
2023-05-22T02:22:00.130Z,59.7
2023-05-22T02:24:02.230Z,64.9
2023-05-22T02:26:04.324Z,61
2023-05-22T02:28:09.537Z,66.1
2023-05-22T02:30:11.611Z,69.4
2023-05-22T02:34:42.290Z,58.4
2023-05-22T02:38:46.465Z,58.7
2023-05-22T02:40:51.713Z,67
2023-05-22T02:42:53.781Z,63.3
2023-05-22T02:44:55.854Z,64.3
2023-05-22T02:51:02.084Z,72.7
2023-05-22T02:53:04.170Z,65.2
2023-05-22T02:55:09.577Z,74.1
2023-05-22T02:57:11.522Z,71.3
2023-05-22T02:59:13.635Z,63.3
2023-05-22T03:01:15.741Z,59.5
2023-05-22T03:03:17.906Z,66.4
2023-05-22T03:19:37.566Z,60.6
2023-05-22T03:27:49.067Z,66.7
2023-05-22T03:28:51.681Z,61
2023-05-22T03:30:53.795Z,62.6
2023-05-22T03:32:55.843Z,63.9
2023-05-22T03:34:57.908Z,54.5
2023-05-22T03:39:05.261Z,64.2
2023-05-22T03:41:07.273Z,64.1
2023-05-22T03:43:09.372Z,61.7
2023-05-22T03:45:11.446Z,60.8
2023-05-22T03:47:13.514Z,62.8
2023-05-22T03:49:15.616Z,68.5
2023-05-22T04:05:38.538Z,71.2
2023-05-22T04:07:40.547Z,76.9
2023-05-22T04:13:46.752Z,78.4
2023-05-22T04:15:48.870Z,76.8
2023-05-22T04:17:50.902Z,69.9
2023-05-22T04:19:56.107Z,76.7
2023-05-22T04:24:00.232Z,69.9
2023-05-22T04:25:02.837Z,75.9
2023-05-22T04:31:09.060Z,83.4
2023-05-22T04:37:18.437Z,70.4
2023-05-22T04:53:38.133Z,63.4
2023-05-22T04:57:42.289Z,60.9
2023-05-22T05:01:49.547Z,66.3
2023-05-22T05:03:51.640Z,66.2
2023-05-22T05:05:53.681Z,57.7
2023-05-22T05:07:55.764Z,65.6
2023-05-22T05:09:57.828Z,59.5
2023-05-22T05:11:59.976Z,61.2
2023-05-22T05:16:07.228Z,70.4
2023-05-22T05:18:09.350Z,66.8
2023-05-22T05:21:13.950Z,65.3
2023-05-22T05:23:16.019Z,64.5
2023-05-22T05:25:18.088Z,78.3
2023-05-22T05:27:20.166Z,70
2023-05-22T05:37:33.674Z,61
2023-05-22T05:39:35.746Z,63.7
2023-05-22T05:41:37.803Z,66.9
2023-05-22T05:49:49.296Z,65.6
2023-05-22T05:51:51.352Z,60.8
2023-05-22T06:00:02.888Z,45.5
2023-05-22T06:02:04.891Z,50.6
2023-05-22T06:04:07.054Z,59
2023-05-22T06:06:09.043Z,50
2023-05-22T06:08:11.148Z,54.2
2023-05-22T06:10:13.213Z,44.3
2023-05-22T06:12:18.418Z,48.9
2023-05-22T06:18:51.250Z,42.1
2023-05-22T06:20:53.296Z,42.3
2023-05-22T06:22:55.382Z,35.1
2023-05-22T06:25:00.629Z,43.4
2023-05-22T06:27:02.718Z,35.9
2023-05-22T06:33:09.094Z,39.2
2023-05-22T06:35:11.002Z,39.6
2023-05-22T06:37:14.650Z,34.4
2023-05-22T06:39:19.845Z,36.2
2023-05-22T06:43:23.979Z,35.7
2023-05-22T06:45:26.087Z,35.5
2023-05-22T06:47:28.164Z,31.2
2023-05-22T06:49:30.229Z,35.7
2023-05-22T06:51:32.290Z,29.4
2023-05-22T06:53:37.529Z,31.3
2023-05-22T06:55:39.589Z,30.5
2023-05-22T06:57:41.679Z,32.7
2023-05-22T06:59:43.742Z,30.2
2023-05-22T07:01:45.895Z,26.3
2023-05-22T07:03:47.910Z,27.6
2023-05-22T07:05:50.046Z,32.8
2023-05-22T07:07:55.256Z,36
2023-05-22T07:09:57.289Z,33.1
2023-05-22T07:11:59.354Z,33.8
2023-05-22T07:13:01.992Z,34.4
2023-05-22T07:23:16.431Z,33.2
2023-05-22T07:25:18.493Z,33.2
2023-05-22T07:27:20.589Z,34
2023-05-22T07:29:23.393Z,35.9
2023-05-22T07:35:32.038Z,35.6
2023-05-22T07:37:34.115Z,35.1
2023-05-22T07:39:36.231Z,37.4
2023-05-22T07:41:38.275Z,35.1
2023-05-22T08:00:00.132Z,37.7
2023-05-22T08:02:02.200Z,29
2023-05-22T08:04:07.476Z,36.8
2023-05-22T08:09:14.148Z,30.1
2023-05-22T08:11:16.212Z,35.8
2023-05-22T08:13:18.283Z,31
2023-05-22T08:15:20.338Z,32.8
2023-05-22T08:23:31.779Z,33.4
2023-05-22T08:25:33.840Z,35.3
2023-05-22T08:27:35.884Z,31.7
2023-05-22T08:31:43.238Z,39
2023-05-22T08:46:00.795Z,40
2023-05-22T08:48:02.900Z,35.6
2023-05-22T08:58:13.204Z,38.1
2023-05-22T09:00:18.425Z,35.4
2023-05-22T09:05:25.167Z,43.6
2023-05-22T09:07:27.244Z,39.7
2023-05-22T09:09:29.304Z,33.6
2023-05-22T09:11:31.354Z,32.6
2023-05-22T09:13:36.582Z,33.5
2023-05-22T09:15:38.641Z,36.4
2023-05-22T09:17:40.756Z,37
2023-05-22T09:19:42.779Z,47.2
2023-05-22T09:21:44.826Z,37.6
2023-05-22T09:23:46.848Z,36.3
2023-05-22T09:25:48.917Z,28.1
2023-05-22T09:27:54.137Z,30.9
2023-05-22T09:29:56.185Z,45.3
2023-05-22T09:31:58.312Z,36.5
2023-05-22T09:36:02.370Z,51.1
2023-05-22T09:38:04.420Z,34
2023-05-22T09:40:06.489Z,35.2
2023-05-22T09:42:11.732Z,41.3
2023-05-22T09:44:13.810Z,34.8
2023-05-22T09:46:15.896Z,31.4
2023-05-22T09:48:17.865Z,33.6
2023-05-22T09:50:19.917Z,34.2
2023-05-22T09:52:22.000Z,57.8
2023-05-22T10:00:33.335Z,32.1
2023-05-22T10:03:01.980Z,28.3
2023-05-22T10:05:03.956Z,27.9
2023-05-22T10:07:05.970Z,29.6
2023-05-22T10:09:11.208Z,26.2
2023-05-22T10:11:13.286Z,27.7
2023-05-22T10:13:15.287Z,29.4
2023-05-22T10:15:17.345Z,28.1
2023-05-22T10:17:19.409Z,30.6
2023-05-22T10:19:21.501Z,29.8
2023-05-22T10:21:23.491Z,24.2
2023-05-22T10:23:28.698Z,26.4
2023-05-22T10:25:30.756Z,31.7
2023-05-22T10:27:32.790Z,24.6
2023-05-22T10:43:52.325Z,22
2023-05-22T10:47:56.381Z,24.4
2023-05-22T10:49:58.390Z,25.7
2023-05-22T10:52:03.594Z,25.4
2023-05-22T10:54:05.843Z,19.6
2023-05-22T10:56:07.682Z,24
2023-05-22T10:57:10.254Z,26.2
2023-05-22T10:59:12.272Z,20.4
2023-05-22T11:01:14.390Z,21
2023-05-22T11:03:18.368Z,19
2023-05-22T11:05:21.553Z,22.8
2023-05-22T11:07:23.577Z,19.8
2023-05-22T11:09:25.607Z,19.3
2023-05-22T11:13:29.760Z,31.9
2023-05-22T11:15:31.660Z,29.8
2023-05-22T11:17:33.698Z,22.2
2023-05-22T11:19:38.925Z,17.3
2023-05-22T11:21:40.875Z,12.2
2023-05-22T11:23:42.916Z,16.4
2023-05-22T11:29:48.909Z,21.3
2023-05-22T11:33:56.088Z,31.1
2023-05-22T11:35:58.096Z,21
2023-05-22T11:38:00.125Z,17.6
2023-05-22T11:40:02.124Z,18.6
2023-05-22T11:46:09.169Z,18.2
2023-05-22T11:48:15.632Z,24
2023-05-22T11:50:22.763Z,13.9
2023-05-22T11:52:18.257Z,16.7
2023-05-22T11:53:20.849Z,20.2
2023-05-22T11:57:24.806Z,14
2023-05-22T11:59:26.831Z,20.8
2023-05-22T12:03:34.212Z,19.3
2023-05-22T12:05:35.971Z,20
2023-05-22T12:07:37.948Z,22.5
2023-05-22T12:09:39.938Z,15.6
2023-05-22T12:17:51.117Z,18.9
2023-05-22T12:23:57.099Z,27.1
2023-05-22T12:25:59.089Z,21.6
2023-05-22T12:28:01.110Z,14.7
2023-05-22T12:30:07.817Z,18.3
2023-05-22T12:36:13.768Z,10.4
2023-05-22T12:42:19.766Z,14.5
2023-05-22T12:44:24.934Z,23.4
2023-05-22T12:48:28.957Z,22.5
2023-05-22T12:49:31.513Z,15.5
2023-05-22T12:51:33.531Z,12
2023-05-22T12:53:35.520Z,12
2023-05-22T12:55:37.529Z,11.7
2023-05-22T12:57:42.778Z,14.9
2023-05-22T12:59:44.701Z,14.8
2023-05-22T13:01:46.750Z,23.5
2023-05-22T13:03:48.737Z,19.2
2023-05-22T13:05:50.562Z,18.5
2023-05-22T13:07:52.554Z,19.2
2023-05-22T13:09:54.582Z,13.1
2023-05-22T13:11:59.864Z,12
2023-05-22T13:14:01.746Z,14
2023-05-22T13:16:03.796Z,15.4
2023-05-22T13:18:05.800Z,9.8
2023-05-22T13:20:07.744Z,15.8
2023-05-22T13:22:09.715Z,18.9
2023-05-22T13:26:16.926Z,17.4
2023-05-22T13:28:18.898Z,14.6
2023-05-22T13:30:20.936Z,20.9
2023-05-22T13:32:22.925Z,14
2023-05-22T13:34:25.123Z,12.9
2023-05-22T13:36:26.960Z,15.9
2023-05-22T13:38:28.980Z,17.8
2023-05-22T13:40:34.139Z,20.5
2023-05-22T13:42:36.143Z,28.3
2023-05-22T13:53:15.826Z,13.4
2023-05-22T13:55:17.806Z,26.9
2023-05-22T13:57:19.803Z,18.4
2023-05-22T13:59:21.827Z,23.3
2023-05-22T14:01:23.905Z,25.5
2023-05-22T14:03:25.872Z,19.5
2023-05-22T14:05:27.844Z,24.5
2023-05-22T14:07:33.008Z,15.1
2023-05-22T14:09:35.033Z,21.8
2023-05-22T14:13:39.055Z,14.9
2023-05-22T14:15:41.195Z,16.2
2023-05-22T14:17:43.089Z,12.7
2023-05-22T14:19:45.080Z,24.2
2023-05-22T14:21:50.251Z,14.1
2023-05-22T14:23:52.268Z,15.6
2023-05-22T14:25:54.294Z,15.4
2023-05-22T14:29:58.325Z,12.2
2023-05-22T14:32:00.353Z,17.8
2023-05-22T14:34:02.374Z,15.2
2023-05-22T14:36:07.579Z,13.7
2023-05-22T14:38:09.660Z,11.8
2023-05-22T14:40:11.631Z,12.8
2023-05-22T14:41:14.226Z,13.2
2023-05-22T14:43:16.241Z,13.8
2023-05-22T14:45:18.306Z,15.1
2023-05-22T14:47:20.337Z,13.8
2023-05-22T14:49:25.539Z,14.5
2023-05-22T14:51:27.597Z,15.9
2023-05-22T14:53:29.599Z,18.4
2023-05-22T14:55:31.656Z,23.9
2023-05-22T14:57:33.686Z,22.4
2023-05-22T14:59:35.711Z,26.3
2023-05-22T15:03:42.972Z,15.8
2023-05-22T15:05:44.985Z,13.3
2023-05-22T15:07:48.460Z,19.4
2023-05-22T15:11:51.111Z,9.1
2023-05-22T15:13:53.128Z,11.6
2023-05-22T15:15:55.164Z,10.1
2023-05-22T15:18:00.360Z,7.5
2023-05-22T15:20:02.341Z,10.2
2023-05-22T15:22:18.182Z,9
2023-05-22T15:24:06.310Z,7.7
2023-05-22T15:26:08.309Z,5.7
2023-05-22T15:30:12.448Z,32.1
2023-05-22T15:32:17.480Z,11.2
2023-05-22T15:34:19.408Z,11.8
2023-05-22T15:36:21.391Z,15.1
2023-05-22T15:37:23.972Z,91
2023-05-22T15:39:25.955Z,21.6
2023-05-22T15:49:38.977Z,7.5
2023-05-22T15:53:42.914Z,13.6
2023-05-22T15:55:44.857Z,10.7
2023-05-22T15:57:46.821Z,9.2
2023-05-22T15:59:51.967Z,31.8
2023-05-22T16:03:55.916Z,6.3
2023-05-22T16:05:57.855Z,5.7
2023-05-22T16:07:59.808Z,8.8
2023-05-22T16:10:01.893Z,8.2
2023-05-22T16:12:03.741Z,9.2
2023-05-22T16:16:10.873Z,5.8
2023-05-22T16:20:14.770Z,14.4
2023-05-22T16:22:16.732Z,9.6
2023-05-22T16:24:18.717Z,8.2
2023-05-22T16:26:20.687Z,6.7
2023-05-22T16:28:25.861Z,7.7
2023-05-22T16:30:27.865Z,12.5
2023-05-22T16:32:29.867Z,8.8
2023-05-22T16:33:32.433Z,15.7
2023-05-22T16:35:34.432Z,30.6
2023-05-22T16:37:36.433Z,49.1
2023-05-22T16:39:38.406Z,19.2
2023-05-22T16:41:43.601Z,11.5
2023-05-22T16:43:45.615Z,9
2023-05-22T16:45:47.675Z,11.1
2023-05-22T16:47:49.681Z,8.4
2023-05-22T16:49:51.642Z,7.6
2023-05-22T16:51:53.795Z,15.9
2023-05-22T16:53:55.670Z,5.6
2023-05-22T16:56:00.899Z,5.9
2023-05-22T16:58:02.897Z,8.6
2023-05-22T17:00:04.946Z,9.2
2023-05-22T17:02:06.991Z,17.9
2023-05-22T17:06:11.036Z,15.4
2023-05-22T17:12:20.344Z,12.7
2023-05-22T17:14:22.399Z,5.9
2023-05-22T17:16:24.480Z,5.1
2023-05-22T17:20:28.532Z,89.3
2023-05-22T17:22:30.728Z,101.5
2023-05-22T17:24:35.803Z,46.8
2023-05-22T17:26:37.877Z,13
2023-05-22T17:28:39.942Z,11
2023-05-22T17:51:35.382Z,63.4
2023-05-22T17:53:39.139Z,24.6
2023-05-22T17:55:39.530Z,21.2
2023-05-22T17:57:41.592Z,19.1
2023-05-22T17:59:43.682Z,8.2
2023-05-22T18:01:45.758Z,21.1
2023-05-22T18:03:47.984Z,29.1
2023-05-22T18:05:53.129Z,23
2023-05-22T18:07:55.108Z,14.4
2023-05-22T18:09:57.203Z,35.8
2023-05-22T18:11:59.292Z,43.8
2023-05-22T18:14:01.343Z,18.7
2023-05-22T18:16:03.443Z,17.3
2023-05-22T18:18:05.545Z,10.3
2023-05-22T18:22:14.290Z,13.8
2023-05-22T18:24:16.357Z,13.8
2023-05-22T18:25:18.962Z,22.4
2023-05-22T18:37:34.586Z,19
2023-05-22T18:39:36.675Z,21.9
2023-05-22T18:41:38.759Z,13
2023-05-22T18:43:40.844Z,13.3
2023-05-22T18:45:42.921Z,16.3
2023-05-22T18:51:52.302Z,13.3
2023-05-22T18:53:54.369Z,11.2
2023-05-22T18:55:56.454Z,20.9
2023-05-22T18:57:58.550Z,38
2023-05-22T19:00:00.653Z,16.1
2023-05-22T19:02:05.870Z,22.2
2023-05-22T19:04:07.989Z,24.2
2023-05-22T19:06:10.052Z,29.6
2023-05-22T19:08:12.120Z,13
2023-05-22T19:10:14.212Z,16.2
2023-05-22T19:12:16.278Z,18.9
2023-05-22T19:14:18.365Z,19.9
2023-05-22T19:16:23.637Z,19.9
2023-05-22T19:18:25.693Z,29.2
2023-05-22T19:20:27.778Z,18.1
2023-05-22T19:23:32.476Z,20.7
2023-05-22T19:25:34.564Z,10.3
2023-05-22T19:27:38.726Z,7.7
2023-05-22T19:29:41.897Z,10.6
2023-05-22T19:31:44.061Z,8.5
2023-05-22T19:33:46.083Z,8.9
2023-05-22T19:35:48.258Z,20.2
2023-05-22T19:37:50.255Z,9.6
2023-05-22T19:39:52.324Z,10
2023-05-22T19:41:54.417Z,9.7
2023-05-22T19:46:01.817Z,9.8
2023-05-22T19:50:05.904Z,15.8
2023-05-22T19:54:10.106Z,9.8
2023-05-22T19:56:12.161Z,8.4
2023-05-22T19:58:17.355Z,11.5
2023-05-22T20:00:19.465Z,8.9
2023-05-22T20:02:21.610Z,9
2023-05-22T20:06:25.725Z,7.5
2023-05-22T20:12:35.127Z,14.9
2023-05-22T20:16:39.352Z,18.5
2023-05-22T20:17:41.984Z,12.3
2023-05-22T20:23:48.181Z,11.8
2023-05-22T20:25:53.413Z,23.4
2023-05-22T20:27:55.502Z,12.1
2023-05-22T20:29:59.965Z,12.1
2023-05-22T20:31:59.843Z,14.2
2023-05-22T20:38:05.926Z,9.2
2023-05-22T20:40:11.128Z,18.9
2023-05-22T20:42:13.300Z,14.5
2023-05-22T20:44:15.317Z,13.6
2023-05-22T20:46:17.487Z,17.4
2023-05-22T20:48:19.476Z,11.5
2023-05-22T20:50:21.572Z,14
2023-05-22T20:52:23.676Z,10.2
2023-05-22T20:54:28.862Z,18.7
2023-05-22T20:56:30.991Z,8.6
2023-05-22T20:58:33.080Z,12.1
2023-05-22T21:27:35.056Z,11.9
2023-05-22T21:29:37.156Z,13.6
2023-05-22T21:31:39.238Z,7.2
2023-05-22T21:33:41.344Z,7.6
2023-05-22T21:35:46.562Z,8.3
2023-05-22T21:37:48.652Z,6.3
2023-05-22T21:39:50.707Z,8.5
2023-05-22T21:41:52.800Z,5.9
2023-05-22T21:45:56.988Z,7.4
2023-05-22T21:47:59.056Z,7.1
2023-05-22T21:50:04.255Z,6.4
2023-05-22T21:58:12.574Z,6.3
2023-05-22T22:02:16.774Z,7.8
2023-05-22T22:04:21.957Z,8.8
2023-05-22T22:06:24.067Z,5.7
2023-05-22T22:09:28.728Z,7.6
2023-05-22T22:13:32.873Z,4.5
2023-05-22T22:15:34.994Z,7.2
2023-05-22T22:17:40.288Z,6.8
2023-05-22T22:19:42.307Z,13
2023-05-22T22:23:46.464Z,9
2023-05-22T22:25:48.547Z,5.6
2023-05-22T22:29:52.719Z,18.8
2023-05-22T22:34:00.035Z,9.3
2023-05-22T22:36:02.110Z,10.7
2023-05-22T22:42:08.356Z,8.5
2023-05-22T22:44:10.401Z,14.8
2023-05-22T22:46:15.745Z,9.5
2023-05-22T22:48:17.738Z,9.6
2023-05-22T22:56:26.064Z,7.6
2023-05-22T22:58:28.109Z,10.9
2023-05-22T23:00:33.358Z,19.2
2023-05-22T23:02:35.489Z,8.8
2023-05-22T23:04:37.599Z,11.2
2023-05-22T23:05:40.471Z,8.1
2023-05-22T23:07:42.211Z,9.1
2023-05-22T23:11:46.364Z,11.2
2023-05-22T23:13:51.624Z,14.1
2023-05-22T23:15:53.693Z,14.1
2023-05-22T23:17:55.764Z,13.8
2023-05-22T23:19:57.825Z,13.2
2023-05-22T23:21:59.920Z,15
2023-05-22T23:24:01.988Z,14.5
2023-05-22T23:30:11.362Z,16.2
2023-05-22T23:36:17.615Z,14.9
2023-05-22T23:38:19.682Z,13.1
2023-05-22T23:42:26.996Z,11.9
2023-05-22T23:44:29.091Z,20.1
2023-05-22T23:48:33.252Z,13.6
2023-05-22T23:50:35.342Z,13.5
2023-05-22T23:52:37.430Z,9.8
2023-05-22T23:54:39.501Z,12.8
2023-05-22T23:56:44.710Z,11.7
2023-05-22T23:58:46.833Z,14.6
